Time;durP1;ratioP1;P1;durP2;ratioP2;P2;SDS_P1;SDS_P2;PMS_P1;PMS_P2;Temp;Humidity;BMP_temperature;BMP_pressure;BME280_temperature;BME280_humidity;BME280_pressure;Samples;Min_cycle;Max_cycle;Signal;HPM_P1;HPM_P2
2022/07/19 00:00:20;;;;;;;1.25;1.25;;;27.00;99.90;;;27.39;48.73;101672.06;5056707;28;20045;-67
2022/07/19 00:02:49;;;;;;;1.40;1.40;;;27.00;99.90;;;27.52;48.54;101689.41;5056375;28;20048;-67
2022/07/19 00:05:18;;;;;;;1.30;1.30;;;27.00;99.90;;;27.51;48.90;101684.91;5056401;28;20049;-67
2022/07/19 00:07:47;;;;;;;1.40;1.40;;;27.10;99.90;;;27.47;49.62;101672.47;5056293;28;20045;-67
2022/07/19 00:10:19;;;;;;;2.05;1.95;;;27.10;99.90;;;27.54;48.51;101676.59;5056497;28;20476;-67
2022/07/19 00:12:49;;;;;;;1.40;1.40;;;27.10;99.90;;;27.61;47.70;101686.09;5056612;28;20033;-67
2022/07/19 00:15:18;;;;;;;;;;;27.10;99.90;;;27.61;48.12;101688.81;5057138;28;20041;-67
2022/07/19 00:17:49;;;;;;;1.40;1.40;;;27.10;99.90;;;27.58;49.21;101680.84;5056041;28;19921;-67
2022/07/19 00:20:20;;;;;;;1.50;1.50;;;27.10;99.90;;;27.70;48.23;101675.63;5071819;28;20080;-67
2022/07/19 00:22:49;;;;;;;1.45;1.45;;;27.20;99.90;;;27.71;48.04;101671.91;5055985;28;20045;-67
2022/07/19 00:25:18;;;;;;;1.30;1.30;;;27.30;99.90;;;27.52;48.38;101678.53;5055951;28;20497;-67
2022/07/19 00:27:46;;;;;;;1.40;1.40;;;27.10;99.90;;;27.21;48.22;101646.00;5055952;28;20076;-67
2022/07/19 00:30:16;;;;;;;2.22;2.08;;;26.90;99.90;;;27.34;48.71;101667.88;5055856;28;20475;-67
2022/07/19 00:32:44;;;;;;;1.40;1.40;;;26.90;99.90;;;27.27;47.54;101671.94;5055869;28;20526;-67
2022/07/19 00:35:13;;;;;;;1.88;1.77;;;26.80;99.90;;;27.16;47.82;101664.41;5054759;28;20171;-67
2022/07/19 00:37:41;;;;;;;1.60;1.60;;;26.70;99.90;;;27.28;47.87;101669.09;5055708;28;20049;-66
2022/07/19 00:40:22;;;;;;;1.30;1.30;;;26.80;99.90;;;27.29;47.72;101675.44;5055982;28;20040;-67
2022/07/19 00:42:52;;;;;;;1.40;1.40;;;26.80;99.90;;;27.28;50.03;101673.66;5054777;28;20060;-67
2022/07/19 00:45:21;;;;;;;1.70;1.70;;;26.80;99.90;;;27.02;51.73;101667.13;5055606;28;20041;-67
2022/07/19 00:47:50;;;;;;;1.40;1.40;;;26.60;99.90;;;26.92;52.37;101671.34;5055624;28;20040;-67
2022/07/19 00:50:19;;;;;;;1.30;1.30;;;26.50;99.90;;;26.72;51.05;101648.06;5054503;28;20084;-67
2022/07/19 00:52:51;;;;;;;1.58;1.58;;;26.40;99.90;;;26.99;49.50;101667.28;5055595;28;20083;-67
2022/07/19 00:55:22;;;;;;;1.70;1.65;;;26.50;99.90;;;26.95;48.32;101676.56;5055364;28;20052;-67
2022/07/19 00:57:51;;;;;;;1.40;1.40;;;26.50;99.90;;;26.91;49.80;101666.84;5055468;28;20037;-66
2022/07/19 01:00:21;;;;;;;2.08;1.98;;;26.40;99.90;;;26.75;48.39;101668.75;5055341;28;20048;-66
2022/07/19 01:02:49;;;;;;;1.40;1.40;;;26.20;99.90;;;26.77;50.04;101662.25;5055377;28;20048;-66
2022/07/19 01:05:18;;;;;;;1.50;1.50;;;26.20;99.90;;;26.82;51.15;101663.81;5055619;28;20126;-66
2022/07/19 01:07:47;;;;;;;1.40;1.40;;;26.30;99.90;;;26.76;51.70;101665.94;5054148;28;20135;-66
2022/07/19 01:10:17;;;;;;;1.50;1.50;;;26.20;99.90;;;26.64;56.87;101672.03;5054477;28;20402;-66
2022/07/19 01:12:46;;;;;;;1.40;1.40;;;26.20;99.90;;;26.40;59.00;101672.59;5055146;28;20045;-67
2022/07/19 01:15:18;;;;;;;1.67;1.67;;;26.00;99.90;;;26.16;58.48;101672.13;5055135;28;20045;-66
2022/07/19 01:17:49;;;;;;;1.20;1.20;;;25.80;99.90;;;25.97;59.75;101665.97;5055324;28;20371;-66
2022/07/19 01:20:18;;;;;;;2.17;2.08;;;25.50;99.90;;;26.09;60.36;101661.72;5055024;28;20045;-66
2022/07/19 01:22:48;;;;;;;1.40;1.40;;;25.50;99.90;;;26.12;58.44;101656.09;5054946;28;20072;-66
2022/07/19 01:25:17;;;;;;;1.85;1.83;;;25.60;99.90;;;26.10;55.83;101625.47;5055010;28;20552;-66
2022/07/19 01:27:49;;;;;;;1.77;1.77;;;25.60;99.90;;;26.38;50.76;101653.69;5054852;28;20453;-66
2022/07/19 01:30:20;;;;;;;1.35;1.35;;;25.80;99.90;;;26.54;52.88;101656.34;5054839;28;20094;-65
2022/07/19 01:32:49;;;;;;;4.30;4.05;;;25.90;99.90;;;26.57;54.62;101653.50;5054785;28;20036;-66
2022/07/19 01:35:18;;;;;;;1.40;1.40;;;26.00;99.90;;;26.29;59.74;101656.91;5054714;28;20127;-66
2022/07/19 01:37:49;;;;;;;3.03;2.85;;;25.90;99.90;;;26.26;60.22;101648.06;5054964;28;20041;-66
2022/07/19 01:40:19;;;;;;;1.40;1.40;;;25.80;99.90;;;26.16;56.72;101646.84;5054696;28;20115;-66
2022/07/19 01:42:49;;;;;;;1.50;1.50;;;25.70;99.90;;;26.22;55.12;101657.34;5054614;28;20106;-66
2022/07/19 01:45:19;;;;;;;1.30;1.30;;;25.70;99.90;;;26.03;54.12;101613.19;5054542;28;20040;-66
2022/07/19 01:47:48;;;;;;;1.70;1.70;;;25.70;99.90;;;26.09;52.51;101619.19;5054555;28;20044;-66
2022/07/19 01:50:18;;;;;;;1.63;1.63;;;25.70;99.90;;;26.35;50.95;101644.81;5054418;28;20037;-66
2022/07/19 01:52:48;;;;;;;2.13;2.03;;;25.80;99.90;;;26.40;50.06;101640.03;5054329;28;20041;-66
2022/07/19 01:55:19;;;;;;;1.63;1.63;;;25.90;99.90;;;26.43;49.89;101640.72;5054464;28;20068;-66
2022/07/19 01:57:48;;;;;;;1.60;1.60;;;25.90;99.90;;;26.51;48.89;101637.56;5054581;28;20059;-65
2022/07/19 02:00:19;;;;;;;1.40;1.40;;;26.00;99.90;;;26.47;50.51;101639.56;5054481;28;20065;-66
2022/07/19 02:02:47;;;;;;;1.40;1.40;;;26.00;99.90;;;26.43;53.00;101638.00;5054089;28;20037;-66
2022/07/19 02:05:16;;;;;;;1.63;1.63;;;26.00;99.90;;;26.41;52.25;101639.03;5054027;28;20045;-66
2022/07/19 02:07:48;;;;;;;1.30;1.30;;;25.90;99.90;;;26.46;52.13;101634.25;5054098;28;20040;-66
2022/07/19 02:10:18;;;;;;;1.40;1.40;;;25.90;99.90;;;26.48;50.03;101635.03;5054362;28;20044;-66
2022/07/19 02:12:46;;;;;;;1.70;1.70;;;25.90;99.90;;;26.40;50.13;101630.03;5053846;28;20498;-66
2022/07/19 02:15:15;;;;;;;1.48;1.48;;;26.00;99.90;;;26.46;50.66;101628.81;5053968;28;20606;-66
2022/07/19 02:17:44;;;;;;;2.65;2.45;;;26.00;99.90;;;26.43;49.65;101626.25;5053980;28;20067;-66
2022/07/19 02:20:13;;;;;;;1.60;1.60;;;26.00;99.90;;;26.34;49.58;101635.84;5052917;28;20072;-66
2022/07/19 02:22:42;;;;;;;2.33;2.22;;;25.90;99.90;;;26.37;49.77;101623.91;5054077;28;20049;-66
2022/07/19 02:25:12;;;;;;;2.38;2.05;;;25.90;99.90;;;25.49;49.33;101487.91;5054063;28;20052;-66
2022/07/19 02:27:41;;;;;;;1.60;1.60;;;25.90;99.90;;;26.23;50.26;101621.97;5053805;28;20071;-66
2022/07/19 02:30:11;;;;;;;1.55;1.55;;;25.80;99.90;;;26.31;49.91;101614.28;5053993;28;20132;-66
2022/07/19 02:32:40;;;;;;;1.80;1.80;;;25.80;99.90;;;26.14;49.70;101599.94;5053972;28;20128;-66
2022/07/19 02:35:10;;;;;;;1.73;1.73;;;25.80;99.90;;;26.18;50.14;101615.06;5053913;28;20064;-66
2022/07/19 02:37:39;;;;;;;3.72;3.53;;;25.80;99.90;;;26.16;49.75;101622.41;5069224;28;20555;-66
2022/07/19 02:40:11;;;;;;;1.95;1.90;;;25.70;99.90;;;26.12;49.61;101612.69;5052505;28;20139;-66
2022/07/19 02:42:40;;;;;;;1.75;1.75;;;25.70;99.90;;;26.19;50.14;101620.41;5053534;28;20048;-66
2022/07/19 02:45:09;;;;;;;1.58;1.58;;;25.70;99.90;;;26.25;49.52;101619.22;5054024;28;20071;-66
2022/07/19 02:47:38;;;;;;;1.47;1.47;;;25.80;99.90;;;26.26;50.21;101624.53;5053434;28;20041;-66
2022/07/19 02:50:08;;;;;;;1.60;1.60;;;25.80;99.90;;;26.29;49.99;101618.91;5053601;28;20279;-66
2022/07/19 02:52:36;;;;;;;1.65;1.65;;;25.80;99.90;;;26.34;49.85;101615.94;5053589;28;20041;-66
2022/07/19 02:55:07;;;;;;;1.60;1.60;;;25.90;99.90;;;26.39;49.70;101621.97;5053344;28;20494;-65
2022/07/19 02:57:37;;;;;;;2.40;2.30;;;25.90;99.90;;;26.33;50.14;101622.31;5050666;28;20049;-65
2022/07/19 03:00:08;;;;;;;1.50;1.50;;;25.90;99.90;;;26.20;49.96;101599.59;5051886;28;20041;-65
2022/07/19 03:02:37;;;;;;;1.50;1.50;;;25.90;99.90;;;26.24;50.37;101612.00;5052420;28;20083;-66
2022/07/19 03:05:06;;;;;;;1.60;1.60;;;25.90;99.90;;;26.33;50.12;101614.19;5050693;28;20140;-65
2022/07/19 03:07:35;;;;;;;1.70;1.70;;;25.90;99.90;;;26.31;50.67;101617.00;5051697;28;20049;-64
2022/07/19 03:10:05;;;;;;;1.50;1.50;;;25.90;99.90;;;26.11;50.35;101576.59;5051736;28;20044;-65
2022/07/19 03:12:33;;;;;;;1.42;1.42;;;25.90;99.90;;;26.29;50.13;101610.78;5052439;28;20075;-65
2022/07/19 03:15:05;;;;;;;1.70;1.70;;;25.90;99.90;;;26.26;49.94;101610.09;5051936;28;20039;-65
2022/07/19 03:17:33;;;;;;;1.50;1.50;;;25.80;99.90;;;26.26;49.58;101605.53;5052052;28;20148;-65
2022/07/19 03:20:01;;;;;;;1.20;1.20;;;25.90;99.90;;;26.21;50.02;101604.06;5051683;28;20048;-65
2022/07/19 03:22:30;;;;;;;1.48;1.48;;;25.80;99.90;;;26.26;49.46;101605.53;5051340;28;20084;-65
2022/07/19 03:24:58;;;;;;;1.65;1.65;;;25.80;99.90;;;26.12;49.74;101580.16;5051948;28;20157;-66
2022/07/19 03:27:26;;;;;;;1.40;1.40;;;25.80;99.90;;;26.25;49.82;101598.34;5051628;28;20045;-65
2022/07/19 03:29:55;;;;;;;1.73;1.73;;;25.90;99.90;;;26.25;49.97;101611.06;5051857;28;20045;-65
2022/07/19 03:32:24;;;;;;;1.92;1.88;;;25.80;99.90;;;26.21;49.87;101612.19;5055773;28;20041;-65
2022/07/19 03:34:53;;;;;;;1.50;1.50;;;25.90;99.90;;;26.09;50.08;101585.78;5055728;28;20044;-65
2022/07/19 03:37:21;;;;;;;1.85;1.83;;;25.80;99.90;;;26.21;50.38;101612.19;5055909;28;20045;-65
2022/07/19 03:39:49;;;;;;;1.60;1.60;;;25.80;99.90;;;26.20;50.20;101607.72;5056101;28;20043;-66
2022/07/19 03:42:18;;;;;;;1.67;1.67;;;25.80;99.90;;;26.13;50.85;101606.34;5055690;28;20469;-65
2022/07/19 03:44:46;;;;;;;1.88;1.83;;;25.70;99.90;;;25.94;51.12;101582.94;5055558;28;20047;-65
2022/07/19 03:47:15;;;;;;;2.05;1.95;;;25.60;99.90;;;26.04;50.73;101599.56;5055525;28;20137;-65
2022/07/19 03:49:45;;;;;;;1.58;1.58;;;25.60;99.90;;;26.05;50.82;101600.44;5056080;28;20061;-65
2022/07/19 03:52:13;;;;;;;1.58;1.58;;;25.60;99.90;;;26.09;51.27;101602.94;5055474;28;20069;-66
2022/07/19 03:54:45;;;;;;;1.63;1.63;;;25.60;99.90;;;26.09;51.06;101610.19;5056090;28;20053;-66
2022/07/19 03:57:14;;;;;;;1.80;1.80;;;25.60;99.90;;;25.98;51.10;101596.34;5055575;28;20550;-65
2022/07/19 03:59:42;;;;;;;1.40;1.40;;;25.60;99.90;;;26.05;51.24;101601.31;5055183;28;20064;-66
2022/07/19 04:02:11;;;;;;;1.50;1.50;;;25.60;99.90;;;26.08;51.13;101605.69;5055337;28;20045;-66
2022/07/19 04:04:39;;;;;;;1.60;1.60;;;25.60;99.90;;;26.04;51.44;101606.81;5055318;28;20048;-66
2022/07/19 04:07:09;;;;;;;1.45;1.45;;;25.60;99.90;;;25.98;51.44;101605.31;5055544;28;20055;-66
2022/07/19 04:09:37;;;;;;;3.08;2.88;;;25.50;99.90;;;25.92;51.48;101609.25;5054936;28;20044;-67
2022/07/19 04:12:06;;;;;;;1.42;1.42;;;25.50;99.90;;;25.89;51.89;101612.16;5055054;28;20468;-64
2022/07/19 04:14:34;;;;;;;1.50;1.50;;;25.40;99.90;;;25.95;51.78;101610.94;5055265;28;20107;-66
2022/07/19 04:17:04;;;;;;;1.50;1.50;;;25.40;99.90;;;25.97;51.62;101603.59;5054917;28;20528;-65
2022/07/19 04:19:32;;;;;;;1.60;1.60;;;25.50;99.90;;;26.00;51.46;101603.41;5054975;28;20045;-65
2022/07/19 04:22:00;;;;;;;1.60;1.60;;;25.50;99.90;;;25.93;51.28;101597.47;5054991;28;20113;-65
2022/07/19 04:24:30;;;;;;;1.70;1.70;;;25.50;99.90;;;25.98;51.30;101604.47;5054856;28;20068;-67
2022/07/19 04:26:58;;;;;;;1.57;1.57;;;25.50;99.90;;;25.97;51.57;101605.41;5055534;28;20115;-67
2022/07/19 04:29:27;;;;;;;1.70;1.70;;;25.50;99.90;;;25.97;51.50;101609.00;5055329;28;20282;-66
2022/07/19 04:31:55;;;;;;;3.30;3.20;;;25.50;99.90;;;25.97;52.03;101608.13;5055210;28;20076;-66
2022/07/19 04:34:24;;;;;;;1.58;1.58;;;25.50;99.90;;;25.99;51.72;101609.78;5054643;28;20065;-67
2022/07/19 04:36:52;;;;;;;1.48;1.48;;;25.50;99.90;;;26.07;51.66;101609.41;5054865;28;20103;-66
2022/07/19 04:39:20;;;;;;;1.60;1.60;;;25.60;99.90;;;26.12;51.33;101604.56;5054825;28;20481;-66
2022/07/19 04:41:50;;;;;;;1.95;1.88;;;25.60;99.90;;;25.47;51.33;101489.88;5054965;28;20068;-67
2022/07/19 04:44:18;;;;;;;1.77;1.73;;;25.60;99.90;;;26.16;51.25;101609.75;5054504;28;20041;-66
2022/07/19 04:46:47;;;;;;;1.60;1.60;;;25.70;99.90;;;26.17;50.96;101602.50;5054426;28;20114;-66
2022/07/19 04:49:15;;;;;;;1.63;1.63;;;25.70;99.90;;;26.11;50.93;101602.84;5054702;28;20045;-66
2022/07/19 04:51:44;;;;;;;1.98;1.90;;;25.70;99.90;;;26.03;50.95;101581.53;5054593;28;20041;-66
2022/07/19 04:54:12;;;;;;;1.63;1.63;;;25.70;99.90;;;26.21;51.04;101606.78;5054195;28;20075;-66
2022/07/19 04:56:41;;;;;;;1.67;1.67;;;25.80;99.90;;;26.17;51.43;101599.78;5054482;28;20080;-66
2022/07/19 04:59:10;;;;;;;1.50;1.50;;;25.80;99.90;;;26.21;50.99;101598.63;5054120;28;20044;-66
2022/07/19 05:01:39;;;;;;;1.50;1.50;;;25.80;99.90;;;26.28;50.85;101598.19;5053991;28;20072;-66
2022/07/19 05:04:07;;;;;;;1.90;1.80;;;25.80;99.90;;;26.08;50.45;101567.72;5053913;28;20056;-66
2022/07/19 05:06:35;;;;;;;1.83;1.83;;;25.90;99.90;;;26.20;50.48;101588.72;5052526;28;20454;-66
2022/07/19 05:09:04;;;;;;;1.58;1.58;;;25.80;99.90;;;26.05;50.62;101590.47;5052558;28;20041;-66
2022/07/19 05:11:33;;;;;;;3.95;3.75;;;25.70;99.90;;;25.90;50.93;101585.88;5054149;28;20049;-66
2022/07/19 05:14:01;;;;;;;1.42;1.42;;;25.60;99.90;;;25.92;50.93;101575.81;5053716;28;20048;-67
2022/07/19 05:16:31;;;;;;;1.95;1.90;;;25.60;99.90;;;26.16;51.19;101596.19;5053731;28;20110;-66
2022/07/19 05:19:00;;;;;;;1.50;1.50;;;25.70;99.90;;;26.26;51.05;101589.25;5053931;28;20098;-66
2022/07/19 05:21:28;;;;;;;1.60;1.60;;;25.80;99.90;;;26.35;50.85;101593.25;5053545;28;20076;-66
2022/07/19 05:23:56;;;;;;;1.40;1.40;;;25.90;99.90;;;26.38;50.41;101587.69;5053747;28;20074;-66
2022/07/19 05:26:24;;;;;;;1.52;1.52;;;26.00;99.90;;;26.41;49.86;101592.91;5053516;28;20053;-67
2022/07/19 05:28:53;;;;;;;2.03;1.92;;;26.00;99.90;;;26.37;49.80;101594.06;5053761;28;20445;-66
2022/07/19 05:31:21;;;;;;;1.50;1.50;;;26.00;99.90;;;26.50;50.40;101597.81;5053599;28;20453;-66
2022/07/19 05:33:51;;;;;;;1.52;1.52;;;26.10;99.90;;;26.63;50.46;101599.72;5053153;28;20475;-66
2022/07/19 05:36:20;;;;;;;1.60;1.60;;;26.20;99.90;;;26.67;50.31;101589.53;5053126;28;20112;-66
2022/07/19 05:38:48;;;;;;;1.50;1.50;;;26.30;99.90;;;26.72;50.17;101576.59;5053494;28;20470;-66
2022/07/19 05:41:16;;;;;;;1.30;1.30;;;26.40;99.90;;;26.88;50.32;101593.72;5053435;28;20131;-66
2022/07/19 05:43:54;;;;;;;1.70;1.70;;;26.50;99.90;;;26.98;50.56;101597.63;5053317;28;20053;-67
2022/07/19 05:46:22;;;;;;;1.48;1.48;;;26.60;99.90;;;27.10;50.47;101605.00;5053084;28;20518;-67
2022/07/19 05:48:52;;;;;;;1.33;1.33;;;26.70;99.90;;;27.21;50.18;101605.25;5053036;28;20510;-67
2022/07/19 05:51:20;;;;;;;1.40;1.40;;;26.80;99.90;;;27.33;49.99;101612.66;5053508;28;20068;-67
2022/07/19 05:53:49;;;;;;;1.70;1.70;;;26.90;99.90;;;27.39;49.71;101606.84;5052282;28;20045;-67
2022/07/19 05:56:17;;;;;;;1.55;1.55;;;27.00;99.90;;;27.46;49.64;101602.78;5052797;28;20096;-68
2022/07/19 05:58:46;;;;;;;1.60;1.60;;;27.00;99.90;;;27.55;49.35;101606.75;5052852;28;20107;-68
2022/07/19 06:01:22;;;;;;;1.52;1.52;;;27.10;99.90;;;27.61;49.75;101607.25;5052886;28;20065;-68
2022/07/19 06:03:53;;;;;;;1.30;1.30;;;27.10;99.90;;;27.60;49.32;101607.34;5051758;28;20412;-68
2022/07/19 06:06:28;;;;;;;1.40;1.40;;;27.20;99.90;;;27.67;49.25;101601.44;5053374;28;20120;-68
2022/07/19 06:08:58;;;;;;;1.33;1.33;;;27.20;99.90;;;27.71;49.25;101587.63;5053219;28;20060;-68
2022/07/19 06:11:27;;;;;;;1.38;1.38;;;27.30;99.90;;;27.80;49.60;101600.66;5052776;28;20052;-68
2022/07/19 06:13:56;;;;;;;1.52;1.52;;;27.30;99.90;;;27.86;49.43;101605.66;5052508;28;20077;-67
2022/07/19 06:16:25;;;;;;;1.35;1.35;;;27.40;99.90;;;27.91;49.08;101618.03;5052945;28;20045;-67
2022/07/19 06:18:55;;;;;;;1.20;1.20;;;27.40;99.90;;;27.96;49.16;101598.69;5051554;28;20389;-67
2022/07/19 06:21:24;;;;;;;1.30;1.30;;;27.50;99.90;;;27.99;48.88;101602.09;5052710;28;20102;-67
2022/07/19 06:23:52;;;;;;;1.30;1.30;;;27.60;99.90;;;28.05;49.10;101603.56;5053122;28;20079;-67
2022/07/19 06:26:21;;;;;;;1.10;1.10;;;27.60;99.90;;;27.90;48.58;101555.53;5052597;28;20072;-67
2022/07/19 06:28:49;;;;;;;1.52;1.52;;;27.70;99.90;;;28.23;48.67;101603.22;5052798;28;20060;-68
2022/07/19 06:31:18;;;;;;;1.40;1.40;;;27.80;99.90;;;28.26;48.38;101594.81;5052410;28;20090;-67
2022/07/19 06:33:48;;;;;;;1.48;1.48;;;27.90;99.90;;;28.33;48.44;101598.03;5052369;28;20143;-67
2022/07/19 06:36:20;;;;;;;;;;;27.90;99.90;;;28.43;48.48;101604.63;5052958;28;20148;-68
2022/07/19 06:38:49;;;;;;;1.48;1.48;;;28.00;99.90;;;28.33;48.53;101574.41;5051528;28;20373;-68
2022/07/19 06:41:18;;;;;;;1.35;1.35;;;28.00;99.90;;;28.39;48.62;101592.19;5052780;28;20132;-69
2022/07/19 06:43:47;;;;;;;1.45;1.45;;;28.10;99.90;;;28.64;48.54;101602.31;5052832;28;20186;-67
2022/07/19 06:46:15;;;;;;;1.25;1.25;;;28.20;99.90;;;28.52;48.58;101574.03;5052312;28;20041;-67
2022/07/19 06:48:44;;;;;;;1.30;1.30;;;28.30;99.90;;;28.78;48.08;101602.25;5052228;28;20041;-67
2022/07/19 06:51:12;;;;;;;1.30;1.30;;;28.40;99.90;;;28.86;48.81;101595.28;5051221;28;20056;-67
2022/07/19 06:53:42;;;;;;;1.20;1.20;;;28.50;99.90;;;28.81;48.46;101578.41;5052092;28;20438;-68
2022/07/19 06:56:10;;;;;;;1.15;1.15;;;28.50;99.90;;;29.04;47.68;101602.19;5051874;28;20053;-68
2022/07/19 06:58:38;;;;;;;1.40;1.40;;;28.60;99.90;;;29.12;47.28;101601.66;5052179;28;20049;-69
2022/07/19 07:01:09;;;;;;;1.30;1.30;;;28.70;99.90;;;29.14;46.85;101589.72;5052162;28;20065;-68
2022/07/19 07:03:38;;;;;;;1.30;1.30;;;28.80;99.90;;;29.25;46.55;101600.72;5052333;28;20223;-67
2022/07/19 07:06:07;;;;;;;1.13;1.13;;;28.80;99.90;;;29.28;46.89;101592.34;5051109;28;20479;-68
2022/07/19 07:08:36;;;;;;;1.42;1.42;;;28.90;99.90;;;29.36;46.51;101589.91;5052630;28;20045;-68
2022/07/19 07:11:06;;;;;;;1.20;1.20;;;29.00;99.90;;;29.32;45.90;101585.69;5050549;28;20048;-68
2022/07/19 07:13:34;;;;;;;1.10;1.10;;;29.00;99.90;;;29.43;46.18;101587.63;5051944;28;20037;-69
2022/07/19 07:16:03;;;;;;;1.02;1.02;;;29.10;99.90;;;29.46;46.21;101570.19;5051601;28;20143;-68
2022/07/19 07:18:31;;;;;;;2.92;2.78;;;29.20;99.90;;;29.73;45.79;101582.75;5051937;28;20049;-67
2022/07/19 07:21:00;;;;;;;1.08;1.08;;;29.40;99.90;;;29.76;44.88;101582.50;5052052;28;20078;-68
2022/07/19 07:23:28;;;;;;;1.10;1.10;;;29.40;99.90;;;29.83;45.56;101578.34;5051810;28;20449;-67
2022/07/19 07:25:57;;;;;;;9.75;2.92;;;29.50;99.90;;;29.94;45.56;101586.63;5051770;28;20128;-68
2022/07/19 07:28:27;;;;;;;2.22;2.03;;;29.60;99.90;;;30.03;45.63;101585.06;5052083;28;20064;-68
2022/07/19 07:30:55;;;;;;;1.00;1.00;;;29.70;99.90;;;30.12;45.16;101581.69;5052021;28;20080;-69
2022/07/19 07:33:24;;;;;;;1.15;1.15;;;29.80;99.90;;;30.19;44.76;101582.94;5051741;28;20578;-68
2022/07/19 07:35:52;;;;;;;0.90;0.90;;;29.80;99.90;;;30.35;45.15;101589.03;5052181;28;20551;-69
2022/07/19 07:38:21;;;;;;;1.13;1.13;;;30.00;99.90;;;30.46;45.06;101582.75;5052099;28;20037;-66
2022/07/19 07:40:49;;;;;;;1.00;1.00;;;30.10;99.90;;;30.58;45.20;101582.72;5051830;28;20040;-66
2022/07/19 07:43:39;;;;;;;1.20;1.20;;;30.20;99.90;;;30.17;45.04;101494.81;5051546;28;20580;-64
2022/07/19 07:46:07;;;;;;;1.10;1.10;;;30.40;99.90;;;30.67;44.69;101572.91;5051749;28;20059;-65
2022/07/19 07:48:36;;;;;;;0.98;0.98;;;30.50;99.90;;;30.90;44.25;101577.50;5051385;28;20087;-66
2022/07/19 07:51:04;;;;;;;1.00;1.00;;;30.70;99.90;;;31.02;43.92;101580.16;5051657;28;20060;-66
2022/07/19 07:53:53;;;;;;;1.00;1.00;;;30.70;99.90;;;31.11;43.76;101582.16;5051698;28;20072;-65
2022/07/19 07:56:22;;;;;;;1.05;1.05;;;30.90;99.90;;;31.20;44.00;101587.91;5051129;28;20059;-66
2022/07/19 07:58:52;;;;;;;1.00;1.00;;;30.90;99.90;;;31.26;43.57;101571.00;5051208;28;20041;-66
2022/07/19 08:01:21;;;;;;;1.00;1.00;;;31.00;99.90;;;31.36;43.51;101596.66;5051427;28;20083;-66
2022/07/19 08:03:49;;;;;;;1.23;1.23;;;31.10;99.90;;;31.51;43.03;101582.66;5051522;28;20041;-66
2022/07/19 08:06:18;;;;;;;1.35;1.30;;;31.20;99.90;;;31.57;42.70;101581.28;5051291;28;20087;-66
2022/07/19 08:08:46;;;;;;;2.33;2.08;;;31.30;99.90;;;31.65;41.25;101585.13;5051622;28;20052;-66
2022/07/19 08:11:14;;;;;;;1.10;1.10;;;31.30;99.90;;;31.60;39.92;101576.41;5051555;28;20156;-66
2022/07/19 08:13:43;;;;;;;1.00;1.00;;;31.30;99.90;;;31.68;39.50;101570.31;5051444;28;20135;-67
2022/07/19 08:16:13;;;;;;;2.60;2.50;;;31.30;99.90;;;31.68;40.03;101560.25;5051681;28;20491;-66
2022/07/19 08:18:41;;;;;;;0.90;0.90;;;31.40;99.90;;;31.84;40.81;101560.72;5054943;28;20047;-66
2022/07/19 08:21:09;;;;;;;1.23;1.23;;;31.50;99.90;;;31.95;39.46;101570.84;5055148;28;20061;-69
2022/07/19 08:23:39;;;;;;;0.90;0.90;;;31.60;99.90;;;32.07;39.95;101567.09;5054891;28;20063;-64
2022/07/19 08:26:08;;;;;;;1.00;1.00;;;31.80;99.90;;;32.05;40.58;101580.03;5055351;28;20471;-65
2022/07/19 08:28:37;;;;;;;1.00;1.00;;;31.70;99.90;;;32.10;39.09;101572.28;5055157;28;20067;-66
2022/07/19 08:31:05;;;;;;;1.00;1.00;;;31.80;99.90;;;31.95;38.58;101571.72;5054558;28;20057;-65
2022/07/19 08:33:41;;;;;;;1.13;1.13;;;31.60;99.90;;;31.97;38.67;101571.56;5055050;28;20048;-64
2022/07/19 08:36:11;;;;;;;4.20;1.40;;;31.60;99.90;;;31.67;38.09;101533.88;5054426;28;20037;-64
2022/07/19 08:38:40;;;;;;;19.23;2.10;;;31.50;99.90;;;31.92;38.46;101562.88;5054629;28;20417;-65
2022/07/19 08:41:09;;;;;;;1.87;1.73;;;31.50;99.90;;;31.96;38.77;101559.75;5054706;28;20492;-64
2022/07/19 08:43:38;;;;;;;2.58;1.70;;;31.60;99.90;;;32.08;37.63;101562.47;5054314;28;20749;-64
2022/07/19 08:46:06;;;;;;;32.28;2.30;;;31.70;99.90;;;32.20;38.26;101566.91;5054800;28;20079;-64
2022/07/19 08:48:39;;;;;;;1.00;1.00;;;31.80;99.90;;;32.23;38.25;101559.31;5054510;28;20175;-64
2022/07/19 08:51:20;;;;;;;1.15;1.15;;;31.80;99.90;;;32.29;36.10;101572.50;5054223;28;20408;-63
2022/07/19 08:53:50;;;;;;;1.58;1.48;;;31.90;99.90;;;32.35;35.12;101569.25;5054346;28;20111;-63
2022/07/19 08:59:06;;;;;;;1.15;1.10;;;32.10;99.90;;;32.66;35.47;101576.63;5054379;28;20045;-62
2022/07/19 09:01:35;;;;;;;2.03;1.92;;;32.30;99.90;;;32.54;33.49;101553.00;5054120;28;20117;-63
2022/07/19 09:04:13;;;;;;;1.85;1.75;;;32.20;99.90;;;32.60;32.76;101544.25;5053796;28;20120;-63
2022/07/19 09:06:48;;;;;;;1.85;1.52;;;32.30;99.90;;;32.74;33.19;101574.09;5054480;28;20049;-67
2022/07/19 09:09:20;;;;;;;1.67;1.45;;;32.30;99.90;;;32.64;32.24;101562.19;5054278;28;20049;-67
2022/07/19 09:11:51;;;;;;;2.70;2.47;;;32.20;99.90;;;32.68;34.06;101562.78;5054128;28;20045;-64
2022/07/19 09:14:22;;;;;;;2.00;1.75;;;32.20;99.90;;;32.71;32.99;101557.91;5054072;28;20123;-65
2022/07/19 09:17:01;;;;;;;1.17;1.10;;;32.30;99.90;;;32.83;34.02;101558.72;5053854;28;20044;-66
2022/07/19 09:19:34;;;;;;;1.52;1.48;;;32.40;99.90;;;32.29;32.15;101486.72;5052657;28;20139;-68
2022/07/19 09:22:06;;;;;;;2.70;1.95;;;32.20;99.90;;;32.82;32.95;101527.72;5053722;28;20479;-68
2022/07/19 09:24:38;;;;;;;1.20;1.20;;;32.50;99.90;;;33.03;32.71;101560.63;5053600;28;20071;-68
2022/07/19 09:27:09;;;;;;;1.23;1.23;;;32.60;99.90;;;33.07;31.94;101537.44;5053515;28;20061;-68
2022/07/19 09:29:40;;;;;;;1.10;1.10;;;32.70;99.90;;;33.32;32.73;101534.25;5052806;28;20041;-69
2022/07/19 09:32:12;;;;;;;1.10;1.10;;;33.00;99.90;;;33.54;31.73;101552.44;5053556;28;20095;-68
2022/07/19 09:34:43;;;;;;;1.10;1.10;;;33.20;99.90;;;33.69;30.08;101540.97;5053541;28;20056;-68
2022/07/19 09:37:19;;;;;;;2.28;2.05;;;33.40;95.00;;;33.74;31.09;101543.28;5053667;28;20053;-68
2022/07/19 09:39:50;;;;;;;1.70;1.60;;;33.30;99.90;;;33.92;30.89;101540.72;5053530;28;20041;-68
2022/07/19 09:42:21;;;;;;;0.70;0.70;;;33.50;99.90;;;34.08;30.88;101547.47;5053444;28;20044;-67
2022/07/19 09:44:59;;;;;;;0.90;0.90;;;33.70;99.90;;;34.11;31.17;101529.84;5053650;28;20048;-67
2022/07/19 09:47:33;;;;;;;0.98;0.98;;;33.80;99.90;;;33.13;31.48;101331.19;5053386;28;20052;-67
2022/07/19 09:50:05;;;;;;;2.65;1.80;;;34.00;99.90;;;34.40;29.23;101545.34;5053283;28;20071;-66
2022/07/19 09:52:36;;;;;;;1.15;1.15;;;34.00;90.10;;;34.41;29.40;101544.34;5053803;28;20463;-66
2022/07/19 09:55:14;;;;;;;;;;;34.00;88.90;;;34.39;29.50;101535.38;5052494;28;20497;-67
2022/07/19 09:57:45;;;;;;;0.90;0.90;;;34.00;91.20;;;34.56;30.42;101531.06;5053384;28;20091;-68
2022/07/19 10:00:17;;;;;;;1.00;1.00;;;34.10;96.50;;;34.73;29.38;101537.72;5053270;28;20048;-67
2022/07/19 10:02:49;;;;;;;0.70;0.70;;;34.40;92.20;;;34.81;28.76;101530.47;5053385;28;20044;-67
2022/07/19 10:05:19;;;;;;;1.00;1.00;;;34.40;85.40;;;34.83;28.95;101524.81;5053080;28;20044;-66
2022/07/19 10:07:49;;;;;;;0.80;0.80;;;34.50;85.90;;;34.81;29.01;101500.19;5053205;28;20045;-66
2022/07/19 10:10:21;;;;;;;0.75;0.75;;;34.60;86.70;;;35.03;28.83;101508.16;5052913;28;20178;-70
2022/07/19 10:12:52;;;;;;;1.40;1.30;;;34.70;84.40;;;35.11;29.74;101521.19;5053128;28;20053;-70
2022/07/19 10:15:21;;;;;;;0.88;0.88;;;34.80;91.40;;;35.26;28.35;101516.94;5053639;28;20095;-70
2022/07/19 10:18:04;;;;;;;0.80;0.80;;;34.90;79.40;;;35.41;28.36;101518.16;5053371;28;20055;-69
2022/07/19 10:20:32;;;;;;;1.08;1.08;;;35.10;77.00;;;35.59;29.09;101521.91;5053356;28;20512;-69
2022/07/19 10:23:04;;;;;;;0.65;0.65;;;35.20;84.60;;;35.74;28.03;101519.50;5052830;28;20132;-69
2022/07/19 10:25:45;;;;;;;0.80;0.80;;;35.40;77.80;;;34.93;27.56;101363.38;5052795;28;20106;-69